Time;durP1;ratioP1;P1;durP2;ratioP2;P2;SDS_P1;SDS_P2;PMS_P1;PMS_P2;Temp;Humidity;BMP_temperature;BMP_pressure;BME280_temperature;BME280_humidity;BME280_pressure;Samples;Min_cycle;Max_cycle;Signal;HPM_P1;HPM_P2
2022/05/30 00:01:57;;;;;;;10.30;2.10;;;9.50;1.00;;;;;;4964082;28;20244;-45
2022/05/30 00:04:22;;;;;;;6.40;2.33;;;9.50;1.00;;;;;;4957231;28;20666;-46
2022/05/30 00:06:47;;;;;;;12.93;2.43;;;9.50;1.00;;;;;;4961069;28;20547;-47
2022/05/30 00:09:13;;;;;;;13.53;3.10;;;9.50;1.00;;;;;;4963957;28;20186;-47
2022/05/30 00:11:40;;;;;;;11.73;2.37;;;9.50;1.00;;;;;;4964162;28;20192;-45
2022/05/30 00:14:06;;;;;;;11.07;2.30;;;9.50;1.00;;;;;;4963839;28;20495;-46
2022/05/30 00:16:31;;;;;;;6.70;2.47;;;9.50;1.00;;;;;;4964553;28;20449;-46
2022/05/30 00:18:57;;;;;;;12.97;2.63;;;9.40;1.00;;;;;;4967277;28;20495;-46
2022/05/30 00:21:24;;;;;;;10.53;2.80;;;9.40;1.00;;;;;;4966172;28;20579;-46
2022/05/30 00:23:53;;;;;;;13.93;2.60;;;9.40;1.00;;;;;;4960463;28;20476;-47
2022/05/30 00:26:20;;;;;;;9.30;2.20;;;9.40;1.00;;;;;;4966890;28;20447;-46
2022/05/30 00:28:46;;;;;;;8.63;2.40;;;9.40;1.00;;;;;;4960553;28;20982;-46
2022/05/30 00:31:14;;;;;;;9.47;2.67;;;9.40;1.00;;;;;;4966171;28;20555;-46
2022/05/30 00:33:43;;;;;;;13.00;3.37;;;9.40;1.00;;;;;;4965191;28;20500;-46
2022/05/30 00:36:09;;;;;;;10.20;2.70;;;9.40;1.00;;;;;;4967331;28;20436;-46
2022/05/30 00:38:34;;;;;;;8.60;3.03;;;9.40;1.00;;;;;;4962540;28;20931;-47
2022/05/30 00:41:00;;;;;;;10.63;2.73;;;9.40;1.00;;;;;;4965411;28;20499;-46
2022/05/30 00:43:32;;;;;;;10.33;2.40;;;9.30;1.00;;;;;;4963006;28;20189;-47
2022/05/30 00:46:01;;;;;;;9.73;3.13;;;9.30;1.00;;;;;;4965120;28;20197;-45
2022/05/30 00:48:41;;;;;;;9.10;3.10;;;9.30;1.00;;;;;;4966173;28;20448;-46
2022/05/30 00:51:11;;;;;;;8.33;3.60;;;9.30;1.00;;;;;;4963038;28;20487;-46
2022/05/30 00:53:40;;;;;;;13.53;3.53;;;9.30;5.40;;;;;;4966392;28;20951;-46
2022/05/30 00:56:09;;;;;;;9.33;2.90;;;9.30;1.00;;;;;;4968623;28;21074;-46
2022/05/30 00:58:38;;;;;;;12.43;2.47;;;9.30;15.60;;;;;;4968556;28;20471;-46
2022/05/30 01:01:05;;;;;;;13.00;2.60;;;9.20;69.90;;;;;;4971941;28;20824;-46
2022/05/30 01:06:32;;;;;;;18.13;3.70;;;9.20;60.80;;;;;;4965625;28;20850;-46
2022/05/30 01:09:21;;;;;;;13.33;2.80;;;9.20;93.40;;;;;;4968193;28;20800;-46
2022/05/30 01:11:53;;;;;;;16.07;3.37;;;9.20;99.90;;;;;;4966738;28;20448;-47
2022/05/30 01:14:20;;;;;;;9.90;3.10;;;9.20;99.90;;;;;;4967841;28;20495;-47
2022/05/30 01:16:46;;;;;;;17.63;3.37;;;9.20;99.90;;;;;;4966231;28;20476;-46
2022/05/30 01:19:53;;;;;;;17.23;3.13;;;9.20;99.90;;;;;;4965677;28;20479;-46
2022/05/30 01:22:36;;;;;;;11.30;2.83;;;9.20;99.90;;;;;;4964963;28;20474;-46
2022/05/30 01:25:14;;;;;;;11.90;2.80;;;9.20;99.90;;;;;;4966469;28;20511;-46
2022/05/30 01:28:17;;;;;;;10.27;2.63;;;9.10;99.90;;;;;;4962271;28;20433;-46
2022/05/30 01:30:42;;;;;;;10.70;3.13;;;9.10;99.90;;;;;;4967793;28;20831;-46
2022/05/30 01:33:08;;;;;;;14.40;2.83;;;9.10;99.90;;;;;;4967026;28;20444;-47
2022/05/30 01:35:34;;;;;;;9.90;2.53;;;9.10;99.90;;;;;;4961074;28;20541;-47
2022/05/30 01:37:59;;;;;;;11.53;2.73;;;9.10;99.90;;;;;;4969169;28;20197;-46
2022/05/30 01:40:26;;;;;;;9.07;3.83;;;9.10;99.90;;;;;;4968608;28;20482;-46
2022/05/30 01:42:55;;;;;;;12.30;2.60;;;9.10;99.90;;;;;;4967785;28;20204;-46
2022/05/30 01:45:20;;;;;;;11.40;2.80;;;9.10;99.90;;;;;;4963261;28;20448;-46
2022/05/30 01:47:46;;;;;;;11.03;2.90;;;9.10;99.90;;;;;;4969298;28;20436;-47
2022/05/30 01:50:12;;;;;;;16.03;3.30;;;9.00;99.90;;;;;;4968040;28;20241;-46
2022/05/30 01:52:38;;;;;;;12.00;3.00;;;9.10;99.90;;;;;;4962598;28;20563;-46
2022/05/30 01:55:04;;;;;;;11.57;2.87;;;9.10;99.90;;;;;;4968379;28;20535;-46
2022/05/30 01:57:30;;;;;;;10.77;3.20;;;9.10;96.20;;;;;;4970083;28;20203;-46
2022/05/30 01:59:55;;;;;;;10.57;2.80;;;9.10;49.80;;;;;;4967591;28;20524;-47
2022/05/30 02:02:21;;;;;;;8.77;2.40;;;9.10;15.00;;;;;;4963199;28;20204;-47
2022/05/30 02:04:47;;;;;;;14.30;2.73;;;9.00;1.00;;;;;;4972499;28;20197;-47
2022/05/30 02:07:12;;;;;;;10.10;2.30;;;9.10;7.30;;;;;;4959645;28;20194;-47
2022/05/30 02:09:38;;;;;;;9.60;2.47;;;9.10;8.40;;;;;;4960292;28;20193;-49
2022/05/30 02:12:04;;;;;;;6.30;1.77;;;9.10;7.60;;;;;;4966540;28;20194;-45
2022/05/30 02:14:29;;;;;;;15.50;2.73;;;9.10;1.00;;;;;;4963915;28;20218;-45
2022/05/30 02:17:01;;;;;;;16.77;2.70;;;9.10;1.00;;;;;;4970734;28;20530;-46
2022/05/30 02:19:34;;;;;;;9.90;2.43;;;9.00;1.00;;;;;;4968484;28;20207;-47
2022/05/30 02:22:00;;;;;;;10.37;2.57;;;9.00;1.00;;;;;;4970109;28;20436;-46
2022/05/30 02:24:26;;;;;;;7.37;2.40;;;9.10;1.00;;;;;;4969799;28;20454;-47
2022/05/30 02:26:52;;;;;;;8.63;2.17;;;9.10;1.00;;;;;;4967519;28;20444;-47
2022/05/30 02:29:18;;;;;;;8.67;2.50;;;9.00;1.00;;;;;;4964504;28;20635;-47
2022/05/30 02:31:44;;;;;;;12.07;2.40;;;9.00;1.00;;;;;;4967567;28;20229;-46
2022/05/30 02:36:54;;;;;;;15.67;2.20;;;9.00;1.00;;;;;;4964386;28;20212;-46
2022/05/30 02:39:22;;;;;;;11.03;2.70;;;9.00;1.00;;;;;;4958546;28;20815;-46
2022/05/30 02:41:49;;;;;;;9.13;2.50;;;9.00;1.00;;;;;;4965128;28;20464;-46
2022/05/30 02:44:19;;;;;;;7.30;2.47;;;9.00;1.00;;;;;;4961193;28;20535;-46
2022/05/30 02:46:48;;;;;;;6.47;2.13;;;9.00;1.00;;;;;;4970054;28;20465;-45
2022/05/30 02:49:15;;;;;;;9.87;2.40;;;9.00;1.00;;;;;;4967243;28;20448;-46
2022/05/30 02:51:41;;;;;;;8.97;2.10;;;9.00;1.00;;;;;;4963599;28;20492;-47
2022/05/30 02:54:07;;;;;;;12.17;2.80;;;9.00;1.00;;;;;;4967634;28;20472;-46
2022/05/30 02:56:32;;;;;;;12.63;2.67;;;9.10;1.00;;;;;;4964004;28;20236;-47
2022/05/30 02:58:59;;;;;;;6.60;1.90;;;9.10;1.00;;;;;;4964722;28;20192;-47
2022/05/30 03:01:25;;;;;;;7.80;2.43;;;9.00;1.00;;;;;;4962803;28;20200;-46
2022/05/30 03:03:51;;;;;;;15.53;2.50;;;9.00;1.00;;;;;;4967988;28;20967;-46
2022/05/30 03:06:17;;;;;;;5.43;2.43;;;9.00;1.00;;;;;;4962975;28;20521;-46
2022/05/30 03:08:43;;;;;;;7.83;2.43;;;9.00;1.00;;;;;;4966437;28;20244;-46
2022/05/30 03:11:10;;;;;;;6.13;2.07;;;9.00;3.90;;;;;;4966352;28;20436;-47
2022/05/30 03:13:37;;;;;;;10.40;2.90;;;9.00;1.00;;;;;;4964627;28;20193;-47
2022/05/30 03:16:03;;;;;;;8.27;2.50;;;9.00;15.30;;;;;;4966139;28;21368;-46
2022/05/30 03:18:29;;;;;;;7.10;2.30;;;9.00;23.00;;;;;;4969635;28;20436;-46
2022/05/30 03:20:55;;;;;;;11.80;2.33;;;9.00;28.70;;;;;;4967729;28;20440;-46
2022/05/30 03:23:20;;;;;;;10.97;2.50;;;9.00;53.10;;;;;;4962801;28;20524;-46
2022/05/30 03:25:46;;;;;;;8.97;2.80;;;9.00;43.30;;;;;;4965792;28;20203;-46
2022/05/30 03:28:11;;;;;;;14.53;2.70;;;9.00;67.20;;;;;;4963915;28;20259;-47
2022/05/30 03:30:37;;;;;;;9.60;2.23;;;9.00;65.80;;;;;;4964841;28;20193;-48
2022/05/30 03:33:04;;;;;;;9.57;2.87;;;9.00;99.90;;;;;;4962553;28;20200;-47
2022/05/30 03:35:30;;;;;;;7.50;2.13;;;9.00;99.90;;;;;;4962114;28;20212;-46
2022/05/30 03:37:56;;;;;;;13.83;3.13;;;9.00;99.90;;;;;;4965400;28;20421;-47
2022/05/30 03:40:22;;;;;;;8.00;2.40;;;9.00;99.90;;;;;;4964712;28;20440;-46
2022/05/30 03:42:47;;;;;;;10.10;2.57;;;9.00;99.90;;;;;;4966166;28;20227;-47
2022/05/30 03:45:13;;;;;;;7.87;2.70;;;9.10;99.90;;;;;;4965382;28;20271;-47
2022/05/30 03:47:44;;;;;;;5.17;2.50;;;9.10;99.90;;;;;;4959169;28;20194;-47
2022/05/30 03:50:13;;;;;;;9.03;2.10;;;9.10;99.90;;;;;;4962278;28;20226;-47
2022/05/30 03:52:39;;;;;;;6.30;2.47;;;9.20;99.90;;;;;;4966056;28;20448;-46
2022/05/30 03:55:13;;;;;;;8.53;2.40;;;9.10;99.90;;;;;;4964703;28;20535;-47
2022/05/30 03:57:42;;;;;;;5.23;2.47;;;9.20;99.90;;;;;;4959796;28;20554;-46
2022/05/30 04:00:21;;;;;;;3.97;2.13;;;9.20;99.90;;;;;;4963219;28;20441;-47
2022/05/30 04:02:49;;;;;;;10.20;2.87;;;9.20;99.90;;;;;;4968052;28;20796;-46
2022/05/30 04:05:19;;;;;;;12.73;3.03;;;9.30;99.90;;;;;;4965792;28;20436;-45
2022/05/30 04:07:45;;;;;;;9.50;2.60;;;9.30;99.90;;;;;;4963485;28;20526;-47
2022/05/30 04:10:11;;;;;;;7.07;3.10;;;9.30;99.90;;;;;;4966303;28;20444;-45
2022/05/30 04:12:38;;;;;;;18.53;3.37;;;9.40;99.90;;;;;;4965529;28;20452;-46
2022/05/30 04:15:05;;;;;;;9.90;3.33;;;9.40;99.90;;;;;;4960702;28;20558;-46
2022/05/30 04:17:34;;;;;;;13.87;2.90;;;9.50;99.90;;;;;;4960148;28;20539;-46
2022/05/30 04:19:59;;;;;;;8.60;3.80;;;9.50;99.90;;;;;;4962935;28;20437;-51
2022/05/30 04:22:25;;;;;;;8.47;3.27;;;9.60;99.90;;;;;;4963541;28;20464;-46
2022/05/30 04:24:52;;;;;;;8.70;3.00;;;9.70;99.90;;;;;;4963081;28;21272;-46
2022/05/30 04:27:17;;;;;;;16.70;3.00;;;9.80;99.90;;;;;;4966190;28;20460;-46
2022/05/30 04:29:43;;;;;;;11.83;3.30;;;9.80;99.90;;;;;;4969108;28;20795;-46
2022/05/30 04:32:10;;;;;;;15.70;2.90;;;9.80;99.90;;;;;;4972265;28;20213;-47
2022/05/30 04:34:36;;;;;;;11.43;3.40;;;9.90;99.90;;;;;;4974381;28;20219;-46
2022/05/30 04:37:03;;;;;;;14.93;3.33;;;9.90;99.90;;;;;;4968212;28;20432;-46
2022/05/30 04:39:28;;;;;;;12.53;3.67;;;9.90;99.90;;;;;;4969968;28;20436;-46
2022/05/30 04:41:54;;;;;;;15.33;3.90;;;9.90;99.90;;;;;;4970534;28;20436;-45
2022/05/30 04:44:19;;;;;;;10.27;3.33;;;10.00;99.90;;;;;;4970741;28;20189;-45
2022/05/30 04:46:56;;;;;;;8.87;3.33;;;10.10;99.90;;;;;;4972330;28;20209;-46
2022/05/30 04:49:22;;;;;;;5.33;3.20;;;10.10;99.90;;;;;;4966157;28;20200;-45
2022/05/30 04:51:48;;;;;;;8.87;3.30;;;10.10;99.90;;;;;;4974518;28;21316;-46
2022/05/30 04:54:14;;;;;;;10.30;3.50;;;10.10;96.70;;;;;;4973386;28;20974;-45
2022/05/30 04:56:40;;;;;;;9.03;3.13;;;10.10;99.90;;;;;;4969672;28;20475;-45
2022/05/30 04:59:06;;;;;;;11.20;3.27;;;10.10;87.40;;;;;;4970886;28;20616;-45
2022/05/30 05:01:32;;;;;;;9.83;2.93;;;10.10;88.60;;;;;;4967692;28;20466;-46
2022/05/30 05:03:58;;;;;;;13.80;3.33;;;10.10;93.00;;;;;;4970870;28;20200;-46
2022/05/30 05:06:23;;;;;;;6.07;3.10;;;10.20;99.90;;;;;;4964346;28;20648;-46
2022/05/30 05:09:05;;;;;;;8.33;2.83;;;10.20;99.90;;;;;;4966154;28;20275;-45
2022/05/30 05:11:34;;;;;;;7.57;3.10;;;10.30;99.90;;;;;;4970451;28;20193;-47
2022/05/30 05:13:59;;;;;;;7.00;3.33;;;10.30;75.20;;;;;;4968483;28;20821;-47
2022/05/30 05:16:27;;;;;;;10.00;2.70;;;10.40;65.10;;;;;;4971937;28;20432;-47
2022/05/30 05:18:54;;;;;;;13.03;3.30;;;10.40;12.60;;;;;;4970086;28;20205;-45
2022/05/30 05:21:22;;;;;;;6.13;2.70;;;10.50;1.00;;;;;;4972597;28;20436;-44
2022/05/30 05:23:48;;;;;;;9.97;2.90;;;10.50;1.00;;;;;;4968893;28;20444;-45
2022/05/30 05:26:15;;;;;;;8.00;2.60;;;10.60;1.00;;;;;;4968071;28;20471;-45
2022/05/30 05:28:41;;;;;;;9.17;3.10;;;10.60;1.00;;;;;;4969034;28;20448;-45
2022/05/30 05:31:08;;;;;;;8.10;2.47;;;10.60;1.00;;;;;;4969276;28;20447;-45
2022/05/30 05:33:34;;;;;;;7.87;2.67;;;10.70;1.00;;;;;;4970897;28;20200;-45
2022/05/30 05:36:00;;;;;;;9.57;2.63;;;10.80;1.00;;;;;;4969263;28;20459;-45
2022/05/30 05:38:26;;;;;;;9.67;3.10;;;10.80;1.00;;;;;;4967945;28;20193;-45
2022/05/30 05:40:52;;;;;;;9.63;3.73;;;10.80;1.00;;;;;;4969131;28;20447;-45
2022/05/30 05:43:18;;;;;;;9.27;3.27;;;10.80;1.00;;;;;;4966108;28;20567;-45
2022/05/30 05:45:46;;;;;;;7.73;4.00;;;10.80;1.00;;;;;;4967342;28;20465;-45
2022/05/30 05:48:13;;;;;;;8.17;2.93;;;10.80;1.00;;;;;;4970877;28;20503;-45
2022/05/30 05:50:40;;;;;;;5.07;2.50;;;10.90;1.00;;;;;;4969237;28;20484;-46
2022/05/30 05:53:06;;;;;;;10.43;3.03;;;10.70;1.00;;;;;;4970400;28;20441;-45
2022/05/30 05:55:32;;;;;;;10.00;3.07;;;10.70;1.00;;;;;;4966237;28;20480;-45
2022/05/30 05:57:57;;;;;;;10.00;3.40;;;10.80;1.00;;;;;;4971953;28;21042;-45
2022/05/30 06:00:23;;;;;;;6.00;3.40;;;11.00;1.00;;;;;;4962505;28;20200;-45
2022/05/30 06:02:48;;;;;;;11.60;3.30;;;10.90;1.00;;;;;;4971065;28;20561;-46
2022/05/30 06:05:14;;;;;;;9.97;2.63;;;10.90;1.00;;;;;;4966134;28;20984;-45
2022/05/30 06:07:41;;;;;;;12.30;3.23;;;10.90;1.00;;;;;;4964114;28;20234;-45
2022/05/30 06:10:10;;;;;;;6.37;2.70;;;11.10;1.00;;;;;;4961898;28;20198;-45
2022/05/30 06:12:39;;;;;;;11.23;2.90;;;11.20;1.00;;;;;;4962624;28;20445;-45
2022/05/30 06:15:06;;;;;;;10.23;2.40;;;11.40;1.00;;;;;;4959651;28;21126;-45
2022/05/30 06:17:35;;;;;;;7.90;3.00;;;11.30;1.00;;;;;;4971846;28;20807;-45
2022/05/30 06:20:01;;;;;;;11.20;3.70;;;11.50;1.00;;;;;;4962505;28;20445;-45
2022/05/30 06:22:26;;;;;;;5.77;2.50;;;11.40;1.00;;;;;;4961699;28;20448;-45
2022/05/30 06:24:52;;;;;;;8.90;2.70;;;11.50;1.00;;;;;;4963029;28;20425;-45
2022/05/30 06:27:20;;;;;;;11.47;3.03;;;11.60;1.00;;;;;;4964237;28;20205;-45
2022/05/30 06:29:47;;;;;;;5.83;3.17;;;11.70;1.00;;;;;;4960060;28;20634;-49
2022/05/30 06:32:12;;;;;;;11.45;2.80;;;11.70;1.00;;;;;;4965644;28;20432;-49
2022/05/30 06:34:38;;;;;;;7.90;3.03;;;11.70;1.00;;;;;;4963836;28;20290;-48
2022/05/30 06:37:04;;;;;;;7.80;2.60;;;11.70;1.00;;;;;;4964851;28;20232;-47
2022/05/30 06:39:29;;;;;;;10.17;3.23;;;11.60;1.00;;;;;;4969077;28;20811;-47
2022/05/30 06:41:55;;;;;;;8.60;2.60;;;11.50;1.00;;;;;;4964118;28;20189;-48
2022/05/30 06:44:20;;;;;;;17.83;3.43;;;11.40;1.00;;;;;;4966732;28;20181;-49
2022/05/30 06:46:46;;;;;;;5.07;2.70;;;11.40;1.00;;;;;;4966413;28;20201;-48
2022/05/30 06:49:12;;;;;;;7.90;2.83;;;11.30;1.00;;;;;;4968074;28;20217;-48
2022/05/30 06:51:38;;;;;;;5.77;3.07;;;11.40;1.00;;;;;;4967327;28;20245;-49
2022/05/30 06:54:06;;;;;;;6.33;2.97;;;11.50;1.00;;;;;;4971404;28;20482;-48
2022/05/30 06:56:35;;;;;;;5.73;3.23;;;11.40;1.00;;;;;;4968914;28;20451;-45
2022/05/30 06:59:01;;;;;;;5.10;2.33;;;11.50;1.00;;;;;;4969497;28;20834;-45
2022/05/30 07:01:29;;;;;;;5.90;2.57;;;11.60;1.00;;;;;;4968976;28;20491;-46
2022/05/30 07:03:55;;;;;;;8.53;2.97;;;11.70;1.00;;;;;;4965373;28;20449;-45
2022/05/30 07:06:31;;;;;;;10.27;2.77;;;11.80;1.00;;;;;;4969544;28;20917;-45
2022/05/30 07:08:56;;;;;;;5.67;2.50;;;11.90;1.00;;;;;;4968406;28;20196;-46
2022/05/30 07:11:23;;;;;;;7.50;2.60;;;12.10;1.00;;;;;;4964801;28;20895;-46
2022/05/30 07:13:49;;;;;;;3.20;2.17;;;12.30;1.00;;;;;;4965958;28;20220;-45
2022/05/30 07:16:15;;;;;;;8.03;2.33;;;12.20;1.00;;;;;;4967346;28;20506;-46
2022/05/30 07:18:45;;;;;;;9.03;2.20;;;12.30;1.00;;;;;;4971060;28;20428;-46
2022/05/30 07:21:13;;;;;;;6.90;2.00;;;12.50;1.00;;;;;;4964864;28;20472;-46
2022/05/30 07:23:40;;;;;;;4.60;1.87;;;12.50;1.00;;;;;;4961375;28;21033;-45
2022/05/30 07:26:09;;;;;;;4.77;1.80;;;12.50;1.00;;;;;;4962276;28;20921;-46
2022/05/30 07:28:35;;;;;;;5.27;1.70;;;12.50;1.00;;;;;;4961045;28;20496;-45
2022/05/30 07:31:09;;;;;;;3.00;2.00;;;12.30;99.90;;;;;;4970745;28;20440;-46
2022/05/30 07:33:36;;;;;;;9.00;2.77;;;12.30;1.00;;;;;;4965211;28;20216;-46
2022/05/30 07:36:05;;;;;;;5.40;2.40;;;12.40;1.00;;;;;;4967893;28;20477;-46
2022/05/30 07:38:31;;;;;;;6.47;2.57;;;12.70;1.00;;;;;;4968004;28;20442;-46
2022/05/30 07:40:56;;;;;;;8.60;2.07;;;12.90;1.00;;;;;;4965485;28;20799;-47
2022/05/30 07:43:22;;;;;;;3.50;1.70;;;13.00;1.00;;;;;;4964729;28;20421;-46
2022/05/30 07:45:47;;;;;;;7.73;2.20;;;13.10;99.90;;;;;;4964170;28;20197;-46
2022/05/30 07:48:13;;;;;;;2.50;1.73;;;12.80;99.90;;;;;;4967059;28;20204;-46
2022/05/30 07:50:39;;;;;;;4.30;1.87;;;12.70;1.00;;;;;;4961528;28;20237;-46
2022/05/30 07:53:04;;;;;;;2.50;2.10;;;12.50;1.00;;;;;;4963275;28;20193;-47
2022/05/30 07:55:31;;;;;;;7.37;2.10;;;12.40;1.00;;;;;;4966024;28;20683;-46
2022/05/30 07:58:04;;;;;;;4.40;1.97;;;12.40;1.00;;;;;;4971255;28;20889;-45
2022/05/30 08:00:35;;;;;;;6.43;3.03;;;12.30;1.00;;;;;;4964799;28;20408;-50
2022/05/30 08:03:01;;;;;;;9.30;2.37;;;12.30;1.00;;;;;;4961835;28;20428;-49
2022/05/30 08:05:27;;;;;;;6.50;2.63;;;12.20;1.00;;;;;;4957681;28;21005;-48
2022/05/30 08:07:53;;;;;;;10.10;2.53;;;12.20;1.00;;;;;;4961317;28;20540;-49
2022/05/30 08:10:20;;;;;;;3.83;2.00;;;12.20;1.00;;;;;;4965770;28;20424;-50
2022/05/30 08:12:47;;;;;;;7.30;2.33;;;12.30;1.00;;;;;;4965261;28;20276;-49
2022/05/30 08:15:14;;;;;;;3.63;2.13;;;12.30;1.00;;;;;;4960432;28;20535;-48
2022/05/30 08:17:40;;;;;;;7.40;1.67;;;12.20;1.00;;;;;;4967621;28;21059;-49
2022/05/30 08:20:08;;;;;;;4.27;1.73;;;12.20;1.00;;;;;;4961388;28;20427;-49
2022/05/30 08:22:34;;;;;;;5.37;2.27;;;12.30;1.00;;;;;;4959964;28;20515;-50
2022/05/30 08:25:03;;;;;;;4.37;1.90;;;12.50;1.00;;;;;;4966350;28;20555;-49
2022/05/30 08:27:29;;;;;;;5.80;2.20;;;12.60;99.90;;;;;;4964571;28;20766;-49
2022/05/30 08:29:55;;;;;;;2.80;2.00;;;12.80;99.90;;;;;;4963364;28;20440;-50
2022/05/30 08:32:20;;;;;;;4.70;2.03;;;12.90;99.90;;;;;;4963834;28;20907;-50
2022/05/30 08:34:46;;;;;;;4.30;2.33;;;13.10;99.90;;;;;;4957160;28;20213;-49
2022/05/30 08:37:12;;;;;;;4.50;1.87;;;13.30;99.90;;;;;;4954004;28;20193;-49
2022/05/30 08:42:31;;;;;;;8.50;2.30;;;13.60;99.90;;;;;;4960315;28;20259;-49
2022/05/30 08:44:57;;;;;;;3.53;2.03;;;13.80;99.90;;;;;;4960598;28;20471;-49
2022/05/30 08:47:44;;;;;;;7.90;2.30;;;14.00;99.90;;;;;;4959354;28;20440;-48
2022/05/30 08:50:41;;;;;;;6.00;1.87;;;14.00;99.90;;;;;;4961571;28;20227;-50
2022/05/30 08:53:40;;;;;;;4.20;1.80;;;13.70;99.90;;;;;;4958597;28;20967;-49
2022/05/30 08:56:33;;;;;;;3.23;1.77;;;13.30;99.90;;;;;;4959582;28;20460;-48
2022/05/30 08:59:37;;;;;;;4.37;1.60;;;12.90;99.90;;;;;;4966214;28;20424;-50
2022/05/30 09:02:05;;;;;;;6.80;1.80;;;12.90;99.90;;;;;;4960666;28;20426;-50
2022/05/30 09:04:47;;;;;;;6.23;1.93;;;12.90;99.90;;;;;;4952845;28;20451;-49
2022/05/30 09:07:16;;;;;;;3.73;1.60;;;12.90;99.90;;;;;;4955312;28;20437;-49
2022/05/30 09:09:54;;;;;;;2.33;1.60;;;13.00;99.90;;;;;;4956964;28;20414;-49
2022/05/30 09:12:41;;;;;;;5.17;2.00;;;13.20;99.90;;;;;;4963064;28;20452;-49
2022/05/30 09:15:11;;;;;;;8.20;2.20;;;13.60;99.90;;;;;;4965632;28;20602;-49
2022/05/30 09:18:00;;;;;;;2.53;1.93;;;13.90;99.90;;;;;;4959036;28;20448;-49
2022/05/30 09:20:29;;;;;;;3.60;1.60;;;14.20;99.90;;;;;;4969903;28;20546;-49
2022/05/30 09:22:54;;;;;;;3.93;1.70;;;14.40;99.90;;;;;;4973138;28;20444;-48
2022/05/30 09:28:19;;;;;;;4.33;1.67;;;14.20;99.90;;;;;;4966604;28;20197;-49
2022/05/30 09:31:18;;;;;;;7.80;1.63;;;14.00;99.90;;;;;;4963140;28;20440;-46
2022/05/30 09:33:49;;;;;;;7.33;2.03;;;13.50;99.90;;;;;;4971111;28;20637;-46
2022/05/30 09:36:30;;;;;;;7.73;1.43;;;13.10;99.90;;;;;;4965266;28;20454;-46
2022/05/30 09:39:02;;;;;;;10.10;2.20;;;12.80;99.90;;;;;;4966072;28;20978;-46
2022/05/30 09:41:40;;;;;;;2.50;1.70;;;12.60;99.90;;;;;;4957669;28;20428;-46
2022/05/30 09:44:18;;;;;;;4.50;1.63;;;12.50;99.90;;;;;;4964243;28;20444;-46
2022/05/30 09:47:00;;;;;;;2.60;1.43;;;12.40;99.90;;;;;;4967033;28;21004;-47
2022/05/30 09:49:38;;;;;;;4.70;1.40;;;12.50;99.90;;;;;;4964304;28;21003;-45
2022/05/30 09:52:33;;;;;;;3.00;1.40;;;12.60;99.90;;;;;;4961017;28;20501;-45
2022/05/30 09:54:59;;;;;;;2.93;1.50;;;12.50;99.90;;;;;;4965381;28;20472;-45
2022/05/30 09:57:35;;;;;;;4.40;1.67;;;12.50;99.90;;;;;;4964175;28;20444;-45
2022/05/30 10:00:08;;;;;;;3.03;1.20;;;12.50;99.90;;;;;;4968044;28;20428;-46
2022/05/30 10:02:37;;;;;;;3.10;1.30;;;12.70;99.90;;;;;;4961991;28;20500;-47
2022/05/30 10:05:22;;;;;;;2.13;1.10;;;13.00;99.90;;;;;;4962324;28;20898;-46
2022/05/30 10:08:06;;;;;;;2.20;1.20;;;13.20;99.90;;;;;;4967321;28;20483;-46
2022/05/30 10:10:39;;;;;;;2.00;0.80;;;13.30;99.90;;;;;;4969971;28;20969;-46
2022/05/30 10:13:09;;;;;;;3.13;1.00;;;13.50;99.90;;;;;;4968363;28;20432;-46
2022/05/30 10:15:43;;;;;;;1.13;0.80;;;13.40;99.90;;;;;;4968361;28;20527;-46
2022/05/30 10:18:17;;;;;;;1.87;0.80;;;13.60;99.90;;;;;;4969174;28;20440;-47
2022/05/30 10:21:11;;;;;;;2.30;0.90;;;13.80;99.90;;;;;;4966252;28;20425;-46
2022/05/30 10:29:52;;;;;;;2.43;0.90;;;14.10;99.90;;;;;;4963853;28;20446;-46
2022/05/30 10:32:21;;;;;;;3.30;0.80;;;14.10;99.90;;;;;;4969313;28;20934;-46
2022/05/30 10:35:16;;;;;;;3.50;0.73;;;14.10;99.90;;;;;;4965933;28;20539;-46
2022/05/30 10:37:57;;;;;;;4.87;0.73;;;14.00;99.90;;;;;;4961521;28;20836;-46
2022/05/30 10:40:34;;;;;;;2.93;0.90;;;14.00;99.90;;;;;;4961852;28;20432;-46
2022/05/30 10:43:10;;;;;;;3.20;0.90;;;14.10;99.90;;;;;;4963942;28;20417;-46
2022/05/30 10:45:50;;;;;;;0.90;0.80;;;14.10;99.90;;;;;;4965622;28;20425;-46
2022/05/30 10:48:40;;;;;;;1.00;0.73;;;14.30;99.90;;;;;;4968776;28;20803;-46
2022/05/30 10:51:09;;;;;;;2.30;0.90;;;14.40;99.90;;;;;;4963200;28;20484;-46
2022/05/30 10:53:47;;;;;;;1.03;0.80;;;14.50;99.90;;;;;;4960575;28;20441;-46
2022/05/30 10:56:27;;;;;;;2.00;0.90;;;14.60;99.90;;;;;;4965463;28;20421;-45
2022/05/30 10:59:05;;;;;;;0.80;0.80;;;14.50;99.90;;;;;;4966227;28;20428;-46
2022/05/30 11:01:46;;;;;;;0.80;0.80;;;14.50;99.90;;;;;;4961994;28;20405;-46
2022/05/30 11:04:51;;;;;;;2.50;0.97;;;14.50;99.90;;;;;;4965756;28;20483;-45
2022/05/30 11:07:55;;;;;;;2.50;1.10;;;14.60;99.90;;;;;;4964428;28;20929;-46
2022/05/30 11:10:38;;;;;;;2.30;1.00;;;14.80;99.90;;;;;;4959192;28;20772;-45
2022/05/30 11:13:18;;;;;;;3.00;1.10;;;15.10;99.90;;;;;;4962700;28;20417;-45
2022/05/30 11:15:48;;;;;;;2.80;1.13;;;15.30;99.90;;;;;;4965208;28;20469;-46
2022/05/30 11:18:54;;;;;;;3.17;1.20;;;15.60;99.90;;;;;;4963987;28;20520;-44
2022/05/30 11:21:41;;;;;;;1.03;0.93;;;16.00;99.90;;;;;;4963126;28;20475;-45
2022/05/30 11:24:07;;;;;;;2.20;1.00;;;16.30;99.90;;;;;;4963579;28;20487;-44
2022/05/30 11:26:42;;;;;;;2.60;1.00;;;16.60;99.90;;;;;;4966743;28;20949;-45
2022/05/30 11:29:25;;;;;;;2.30;1.13;;;16.70;99.90;;;;;;4965411;28;20428;-45
2022/05/30 11:31:57;;;;;;;3.43;1.30;;;16.30;99.90;;;;;;4963798;28;20424;-44
2022/05/30 11:34:53;;;;;;;2.17;1.23;;;15.80;99.90;;;;;;4962459;28;20495;-45
2022/05/30 11:37:55;;;;;;;5.90;1.40;;;15.10;99.90;;;;;;4963326;28;20798;-46
2022/05/30 11:40:47;;;;;;;5.70;1.40;;;14.40;99.90;;;;;;4962765;28;21220;-46
2022/05/30 11:43:15;;;;;;;4.00;1.10;;;14.00;99.90;;;;;;4963822;28;20432;-45
2022/05/30 11:46:02;;;;;;;3.23;1.07;;;13.70;99.90;;;;;;4963136;28;20424;-48
2022/05/30 11:48:57;;;;;;;3.37;1.43;;;13.60;99.90;;;;;;4961024;28;20425;-46
2022/05/30 11:51:34;;;;;;;5.63;1.20;;;13.50;99.90;;;;;;4944539;28;20574;-46
2022/05/30 11:54:26;;;;;;;5.13;1.60;;;13.50;99.90;;;;;;4970064;28;20436;-46
2022/05/30 11:57:12;;;;;;;5.57;1.30;;;13.50;99.90;;;;;;4966943;28;20554;-46
2022/05/30 11:59:56;;;;;;;4.17;1.20;;;13.30;99.90;;;;;;4963215;28;20440;-46
2022/05/30 12:02:54;;;;;;;3.10;1.20;;;13.00;99.90;;;;;;4964302;28;20450;-46
2022/05/30 12:05:25;;;;;;;3.30;1.43;;;12.80;99.90;;;;;;4958662;28;20448;-46
2022/05/30 12:08:09;;;;;;;0.97;0.90;;;12.80;99.90;;;;;;4964497;28;20432;-46
2022/05/30 12:11:00;;;;;;;1.33;1.10;;;12.90;99.90;;;;;;4963661;28;20815;-46
2022/05/30 12:13:29;;;;;;;5.77;1.20;;;12.90;99.90;;;;;;4964480;28;20436;-46
2022/05/30 12:15:54;;;;;;;2.60;1.20;;;13.10;99.90;;;;;;4968460;28;20472;-47
2022/05/30 12:24:37;;;;;;;2.77;0.93;;;13.90;99.90;;;;;;4966945;28;20443;-47
2022/05/30 12:27:07;;;;;;;1.87;0.90;;;14.40;99.90;;;;;;4966537;28;20419;-46
2022/05/30 12:29:38;;;;;;;3.50;1.00;;;14.80;99.90;;;;;;4961635;28;20451;-46
2022/05/30 12:32:10;;;;;;;9.17;1.20;;;15.70;99.90;;;;;;4962728;28;20841;-44
2022/05/30 12:34:58;;;;;;;5.80;1.10;;;16.50;99.90;;;;;;4968912;28;20510;-45
2022/05/30 12:37:43;;;;;;;1.87;0.90;;;17.60;99.90;;;;;;4965054;28;20448;-45
2022/05/30 12:40:26;;;;;;;2.33;0.80;;;18.20;99.90;;;;;;4963563;28;20429;-45
2022/05/30 12:43:16;;;;;;;1.57;1.00;;;18.20;99.90;;;;;;4965588;28;20528;-45
2022/05/30 12:45:51;;;;;;;2.27;0.87;;;18.40;99.90;;;;;;4962919;28;20443;-45
2022/05/30 12:48:33;;;;;;;1.10;0.70;;;18.30;99.90;;;;;;4963871;28;20914;-48
2022/05/30 12:51:00;;;;;;;3.33;1.10;;;17.80;99.90;;;;;;4971206;28;20546;-47
2022/05/30 12:53:55;;;;;;;3.43;1.20;;;17.60;99.90;;;;;;4966342;28;20436;-47
2022/05/30 12:56:39;;;;;;;3.10;1.00;;;17.00;99.90;;;;;;4970640;28;20440;-47
2022/05/30 12:59:11;;;;;;;4.50;1.10;;;16.60;99.90;;;;;;4970282;28;20993;-47
2022/05/30 13:01:42;;;;;;;1.50;1.40;;;16.20;99.90;;;;;;4965479;28;21270;-47
2022/05/30 13:04:25;;;;;;;1.93;1.17;;;16.10;99.90;;;;;;4968312;28;20473;-48
2022/05/30 13:07:02;;;;;;;4.27;1.30;;;16.00;99.90;;;;;;4961159;28;20401;-48
2022/05/30 13:09:35;;;;;;;7.43;1.90;;;16.00;99.90;;;;;;4963383;28;20455;-47
2022/05/30 13:12:12;;;;;;;5.10;1.57;;;15.90;99.90;;;;;;4964970;28;20759;-48
2022/05/30 13:14:58;;;;;;;3.23;1.83;;;15.70;99.90;;;;;;4969369;28;20467;-48
2022/05/30 13:17:46;;;;;;;3.73;1.73;;;15.50;99.90;;;;;;4961963;28;20498;-48
2022/05/30 13:20:20;;;;;;;2.97;1.87;;;15.50;99.90;;;;;;4969989;28;20441;-48
2022/05/30 13:22:53;;;;;;;3.57;1.90;;;15.40;99.90;;;;;;4962134;28;20428;-48
2022/05/30 13:25:23;;;;;;;2.90;1.60;;;15.00;99.90;;;;;;4970457;28;20432;-47
2022/05/30 13:27:49;;;;;;;3.00;2.10;;;14.90;99.90;;;;;;4962625;28;20898;-47
2022/05/30 13:30:27;;;;;;;1.67;1.57;;;14.80;99.90;;;;;;4967059;28;20490;-48
2022/05/30 13:32:54;;;;;;;2.20;2.00;;;14.50;99.90;;;;;;4964269;28;20744;-48
2022/05/30 13:35:24;;;;;;;5.83;1.63;;;14.40;99.90;;;;;;4963407;28;20473;-49
2022/05/30 13:37:58;;;;;;;3.53;1.80;;;14.40;99.90;;;;;;4965506;28;20445;-47
2022/05/30 13:40:27;;;;;;;5.90;2.27;;;14.30;99.90;;;;;;4971025;28;20427;-49